sensor_id;sensor_type;location;lat;lon;timestamp;P1;durP1;ratioP1;P2;durP2;ratioP2
16354;SDS011;8287;51.644;8.494;2023-07-16T00:01:38;2.75;;;1.08;;
16354;SDS011;8287;51.644;8.494;2023-07-16T00:04:06;1.90;;;1.15;;
16354;SDS011;8287;51.644;8.494;2023-07-16T00:06:32;3.53;;;1.10;;
16354;SDS011;8287;51.644;8.494;2023-07-16T00:08:59;1.38;;;1.27;;
16354;SDS011;8287;51.644;8.494;2023-07-16T00:11:26;1.35;;;1.00;;
16354;SDS011;8287;51.644;8.494;2023-07-16T00:13:52;1.92;;;1.30;;
16354;SDS011;8287;51.644;8.494;2023-07-16T00:16:19;2.30;;;1.40;;
16354;SDS011;8287;51.644;8.494;2023-07-16T00:18:45;0.98;;;0.75;;
16354;SDS011;8287;51.644;8.494;2023-07-16T00:21:13;1.23;;;1.00;;
16354;SDS011;8287;51.644;8.494;2023-07-16T00:23:40;1.17;;;1.02;;
16354;SDS011;8287;51.644;8.494;2023-07-16T00:26:06;1.08;;;0.98;;
16354;SDS011;8287;51.644;8.494;2023-07-16T00:28:33;1.08;;;0.93;;
16354;SDS011;8287;51.644;8.494;2023-07-16T00:31:00;0.90;;;0.90;;
16354;SDS011;8287;51.644;8.494;2023-07-16T00:33:27;1.20;;;1.10;;
16354;SDS011;8287;51.644;8.494;2023-07-16T00:35:53;0.80;;;0.77;;
16354;SDS011;8287;51.644;8.494;2023-07-16T00:38:21;1.23;;;0.88;;
16354;SDS011;8287;51.644;8.494;2023-07-16T00:40:47;0.82;;;0.75;;
16354;SDS011;8287;51.644;8.494;2023-07-16T00:43:14;0.75;;;0.70;;
16354;SDS011;8287;51.644;8.494;2023-07-16T00:45:41;1.48;;;1.05;;
16354;SDS011;8287;51.644;8.494;2023-07-16T00:48:11;1.05;;;0.98;;
16354;SDS011;8287;51.644;8.494;2023-07-16T00:50:38;1.67;;;1.20;;
16354;SDS011;8287;51.644;8.494;2023-07-16T00:53:07;1.65;;;0.82;;
16354;SDS011;8287;51.644;8.494;2023-07-16T00:55:35;1.77;;;1.02;;
16354;SDS011;8287;51.644;8.494;2023-07-16T00:58:03;2.35;;;1.08;;
16354;SDS011;8287;51.644;8.494;2023-07-16T01:00:31;1.13;;;1.00;;
16354;SDS011;8287;51.644;8.494;2023-07-16T01:02:58;1.90;;;1.13;;
16354;SDS011;8287;51.644;8.494;2023-07-16T01:05:25;1.60;;;1.17;;
16354;SDS011;8287;51.644;8.494;2023-07-16T01:08:02;1.33;;;1.10;;
16354;SDS011;8287;51.644;8.494;2023-07-16T01:10:30;1.08;;;1.05;;
16354;SDS011;8287;51.644;8.494;2023-07-16T01:12:59;1.58;;;1.30;;
16354;SDS011;8287;51.644;8.494;2023-07-16T01:15:27;1.38;;;1.05;;
16354;SDS011;8287;51.644;8.494;2023-07-16T01:17:53;2.50;;;1.30;;
16354;SDS011;8287;51.644;8.494;2023-07-16T01:20:20;2.05;;;1.23;;
16354;SDS011;8287;51.644;8.494;2023-07-16T01:22:51;1.15;;;1.05;;
16354;SDS011;8287;51.644;8.494;2023-07-16T01:25:35;1.73;;;1.10;;
16354;SDS011;8287;51.644;8.494;2023-07-16T01:28:27;1.05;;;0.90;;
16354;SDS011;8287;51.644;8.494;2023-07-16T01:31:11;3.15;;;0.98;;
16354;SDS011;8287;51.644;8.494;2023-07-16T01:33:38;1.27;;;1.00;;
16354;SDS011;8287;51.644;8.494;2023-07-16T01:36:08;1.20;;;1.10;;
16354;SDS011;8287;51.644;8.494;2023-07-16T01:38:34;2.05;;;1.13;;
16354;SDS011;8287;51.644;8.494;2023-07-16T01:41:02;1.60;;;1.50;;
16354;SDS011;8287;51.644;8.494;2023-07-16T01:43:28;1.33;;;1.00;;
16354;SDS011;8287;51.644;8.494;2023-07-16T01:45:55;0.93;;;0.93;;
16354;SDS011;8287;51.644;8.494;2023-07-16T01:48:24;1.35;;;1.25;;
16354;SDS011;8287;51.644;8.494;2023-07-16T01:50:56;1.55;;;1.23;;
16354;SDS011;8287;51.644;8.494;2023-07-16T01:53:23;2.22;;;1.40;;
16354;SDS011;8287;51.644;8.494;2023-07-16T01:55:49;1.23;;;1.08;;
16354;SDS011;8287;51.644;8.494;2023-07-16T01:58:16;1.67;;;1.52;;
16354;SDS011;8287;51.644;8.494;2023-07-16T02:00:43;2.53;;;1.17;;
16354;SDS011;8287;51.644;8.494;2023-07-16T02:03:09;1.13;;;1.02;;
16354;SDS011;8287;51.644;8.494;2023-07-16T02:05:37;2.20;;;1.58;;
16354;SDS011;8287;51.644;8.494;2023-07-16T02:08:04;1.88;;;1.00;;
16354;SDS011;8287;51.644;8.494;2023-07-16T02:10:31;1.35;;;1.25;;
16354;SDS011;8287;51.644;8.494;2023-07-16T02:12:58;2.80;;;1.38;;
16354;SDS011;8287;51.644;8.494;2023-07-16T02:15:24;2.25;;;1.30;;
16354;SDS011;8287;51.644;8.494;2023-07-16T02:17:51;2.30;;;1.48;;
16354;SDS011;8287;51.644;8.494;2023-07-16T02:20:17;1.77;;;1.40;;
16354;SDS011;8287;51.644;8.494;2023-07-16T02:22:45;2.75;;;1.35;;
16354;SDS011;8287;51.644;8.494;2023-07-16T02:25:12;3.10;;;1.65;;
16354;SDS011;8287;51.644;8.494;2023-07-16T02:27:38;2.30;;;1.67;;
16354;SDS011;8287;51.644;8.494;2023-07-16T02:30:05;2.50;;;1.13;;
16354;SDS011;8287;51.644;8.494;2023-07-16T02:32:33;2.03;;;1.15;;
16354;SDS011;8287;51.644;8.494;2023-07-16T02:34:59;3.13;;;1.42;;
16354;SDS011;8287;51.644;8.494;2023-07-16T02:37:26;1.65;;;1.08;;
16354;SDS011;8287;51.644;8.494;2023-07-16T02:39:54;1.33;;;1.20;;
16354;SDS011;8287;51.644;8.494;2023-07-16T02:42:21;3.47;;;1.38;;
16354;SDS011;8287;51.644;8.494;2023-07-16T02:44:49;1.83;;;1.70;;
16354;SDS011;8287;51.644;8.494;2023-07-16T02:47:15;2.35;;;1.83;;
16354;SDS011;8287;51.644;8.494;2023-07-16T02:49:42;3.38;;;1.42;;
16354;SDS011;8287;51.644;8.494;2023-07-16T02:52:08;2.33;;;1.70;;
16354;SDS011;8287;51.644;8.494;2023-07-16T02:54:35;3.20;;;1.85;;
16354;SDS011;8287;51.644;8.494;2023-07-16T02:57:05;3.60;;;1.80;;
16354;SDS011;8287;51.644;8.494;2023-07-16T02:59:31;3.28;;;1.75;;
16354;SDS011;8287;51.644;8.494;2023-07-16T03:01:58;4.15;;;1.90;;
16354;SDS011;8287;51.644;8.494;2023-07-16T03:04:24;2.67;;;1.63;;
16354;SDS011;8287;51.644;8.494;2023-07-16T03:06:51;1.88;;;1.50;;
16354;SDS011;8287;51.644;8.494;2023-07-16T03:09:18;2.40;;;1.58;;
16354;SDS011;8287;51.644;8.494;2023-07-16T03:11:44;2.53;;;1.20;;
16354;SDS011;8287;51.644;8.494;2023-07-16T03:14:12;1.83;;;1.73;;
16354;SDS011;8287;51.644;8.494;2023-07-16T03:16:39;1.42;;;1.33;;
16354;SDS011;8287;51.644;8.494;2023-07-16T03:19:06;1.92;;;1.63;;
16354;SDS011;8287;51.644;8.494;2023-07-16T03:21:32;3.67;;;1.73;;
16354;SDS011;8287;51.644;8.494;2023-07-16T03:23:59;3.30;;;1.52;;
16354;SDS011;8287;51.644;8.494;2023-07-16T03:26:25;2.33;;;1.50;;
16354;SDS011;8287;51.644;8.494;2023-07-16T03:28:52;2.38;;;1.27;;
16354;SDS011;8287;51.644;8.494;2023-07-16T03:31:21;2.80;;;1.58;;
16354;SDS011;8287;51.644;8.494;2023-07-16T03:33:48;1.65;;;1.55;;
16354;SDS011;8287;51.644;8.494;2023-07-16T03:36:14;3.88;;;1.80;;
16354;SDS011;8287;51.644;8.494;2023-07-16T03:38:41;1.50;;;1.40;;
16354;SDS011;8287;51.644;8.494;2023-07-16T03:41:07;4.22;;;1.80;;
16354;SDS011;8287;51.644;8.494;2023-07-16T03:43:34;2.75;;;1.52;;
16354;SDS011;8287;51.644;8.494;2023-07-16T03:46:00;1.60;;;1.25;;
16354;SDS011;8287;51.644;8.494;2023-07-16T03:48:28;2.40;;;1.20;;
16354;SDS011;8287;51.644;8.494;2023-07-16T03:50:55;1.88;;;1.48;;
16354;SDS011;8287;51.644;8.494;2023-07-16T03:53:21;1.50;;;1.30;;
16354;SDS011;8287;51.644;8.494;2023-07-16T03:55:48;3.13;;;1.23;;
16354;SDS011;8287;51.644;8.494;2023-07-16T03:58:14;3.15;;;1.20;;
16354;SDS011;8287;51.644;8.494;2023-07-16T04:00:41;2.45;;;1.40;;
16354;SDS011;8287;51.644;8.494;2023-07-16T04:03:09;1.88;;;1.58;;
16354;SDS011;8287;51.644;8.494;2023-07-16T04:05:37;3.30;;;1.40;;
16354;SDS011;8287;51.644;8.494;2023-07-16T04:08:03;3.60;;;1.55;;
16354;SDS011;8287;51.644;8.494;2023-07-16T04:10:30;2.60;;;1.48;;
16354;SDS011;8287;51.644;8.494;2023-07-16T04:12:56;2.45;;;1.30;;
16354;SDS011;8287;51.644;8.494;2023-07-16T04:15:23;3.83;;;1.27;;
16354;SDS011;8287;51.644;8.494;2023-07-16T04:17:49;1.85;;;1.05;;
16354;SDS011;8287;51.644;8.494;2023-07-16T04:20:16;3.25;;;1.50;;
16354;SDS011;8287;51.644;8.494;2023-07-16T04:22:44;6.50;;;1.50;;
16354;SDS011;8287;51.644;8.494;2023-07-16T04:25:11;1.58;;;1.10;;
16354;SDS011;8287;51.644;8.494;2023-07-16T04:27:39;3.22;;;1.27;;
16354;SDS011;8287;51.644;8.494;2023-07-16T04:30:08;2.63;;;1.33;;
16354;SDS011;8287;51.644;8.494;2023-07-16T04:32:34;1.35;;;1.25;;
16354;SDS011;8287;51.644;8.494;2023-07-16T04:35:01;3.55;;;1.40;;
16354;SDS011;8287;51.644;8.494;2023-07-16T04:37:28;1.88;;;1.40;;
16354;SDS011;8287;51.644;8.494;2023-07-16T04:39:56;2.08;;;1.23;;
16354;SDS011;8287;51.644;8.494;2023-07-16T04:42:22;2.22;;;1.10;;
16354;SDS011;8287;51.644;8.494;2023-07-16T04:44:49;2.75;;;1.13;;
16354;SDS011;8287;51.644;8.494;2023-07-16T04:47:16;4.20;;;1.33;;
16354;SDS011;8287;51.644;8.494;2023-07-16T04:49:42;7.85;;;1.67;;
16354;SDS011;8287;51.644;8.494;2023-07-16T04:52:09;2.10;;;1.20;;
16354;SDS011;8287;51.644;8.494;2023-07-16T04:54:35;3.58;;;1.48;;
16354;SDS011;8287;51.644;8.494;2023-07-16T04:57:05;6.35;;;1.50;;
16354;SDS011;8287;51.644;8.494;2023-07-16T04:59:33;5.63;;;1.75;;
16354;SDS011;8287;51.644;8.494;2023-07-16T05:02:01;2.30;;;1.63;;
16354;SDS011;8287;51.644;8.494;2023-07-16T05:04:28;3.75;;;2.15;;
16354;SDS011;8287;51.644;8.494;2023-07-16T05:06:55;3.17;;;1.38;;
16354;SDS011;8287;51.644;8.494;2023-07-16T05:09:21;1.77;;;1.20;;
16354;SDS011;8287;51.644;8.494;2023-07-16T05:11:48;4.43;;;1.40;;
16354;SDS011;8287;51.644;8.494;2023-07-16T05:14:16;3.92;;;1.45;;
16354;SDS011;8287;51.644;8.494;2023-07-16T05:16:42;2.58;;;1.05;;
16354;SDS011;8287;51.644;8.494;2023-07-16T05:19:09;2.17;;;1.23;;
16354;SDS011;8287;51.644;8.494;2023-07-16T05:21:36;3.45;;;1.85;;
16354;SDS011;8287;51.644;8.494;2023-07-16T05:24:04;4.90;;;1.92;;
16354;SDS011;8287;51.644;8.494;2023-07-16T05:26:31;4.20;;;1.42;;
16354;SDS011;8287;51.644;8.494;2023-07-16T05:28:58;4.03;;;1.27;;
16354;SDS011;8287;51.644;8.494;2023-07-16T05:31:26;5.00;;;1.80;;
16354;SDS011;8287;51.644;8.494;2023-07-16T05:33:52;5.05;;;1.45;;
16354;SDS011;8287;51.644;8.494;2023-07-16T05:36:19;2.25;;;1.20;;
16354;SDS011;8287;51.644;8.494;2023-07-16T05:38:45;3.85;;;1.40;;
16354;SDS011;8287;51.644;8.494;2023-07-16T05:41:12;3.97;;;1.67;;
16354;SDS011;8287;51.644;8.494;2023-07-16T05:43:38;2.63;;;1.95;;
16354;SDS011;8287;51.644;8.494;2023-07-16T05:46:05;2.45;;;1.88;;
16354;SDS011;8287;51.644;8.494;2023-07-16T05:48:33;4.82;;;1.85;;
16354;SDS011;8287;51.644;8.494;2023-07-16T05:51:00;4.60;;;1.48;;
16354;SDS011;8287;51.644;8.494;2023-07-16T05:53:26;4.30;;;2.03;;
16354;SDS011;8287;51.644;8.494;2023-07-16T05:55:53;6.00;;;1.92;;
16354;SDS011;8287;51.644;8.494;2023-07-16T05:58:19;5.03;;;1.35;;
16354;SDS011;8287;51.644;8.494;2023-07-16T06:00:46;1.63;;;1.48;;
16354;SDS011;8287;51.644;8.494;2023-07-16T06:03:13;4.00;;;1.55;;
16354;SDS011;8287;51.644;8.494;2023-07-16T06:05:43;4.97;;;1.95;;
16354;SDS011;8287;51.644;8.494;2023-07-16T06:08:10;3.20;;;1.70;;
16354;SDS011;8287;51.644;8.494;2023-07-16T06:10:37;2.72;;;1.63;;
16354;SDS011;8287;51.644;8.494;2023-07-16T06:13:04;2.65;;;1.60;;
16354;SDS011;8287;51.644;8.494;2023-07-16T06:15:30;6.05;;;2.53;;
16354;SDS011;8287;51.644;8.494;2023-07-16T06:17:57;3.60;;;1.85;;
16354;SDS011;8287;51.644;8.494;2023-07-16T06:20:24;6.63;;;2.30;;
16354;SDS011;8287;51.644;8.494;2023-07-16T06:22:52;4.82;;;1.75;;
16354;SDS011;8287;51.644;8.494;2023-07-16T06:25:18;4.10;;;2.40;;
16354;SDS011;8287;51.644;8.494;2023-07-16T06:27:45;5.05;;;2.50;;
16354;SDS011;8287;51.644;8.494;2023-07-16T06:30:11;4.25;;;2.15;;
16354;SDS011;8287;51.644;8.494;2023-07-16T06:32:38;5.32;;;2.45;;
16354;SDS011;8287;51.644;8.494;2023-07-16T06:35:04;3.47;;;1.90;;
16354;SDS011;8287;51.644;8.494;2023-07-16T06:37:31;3.72;;;2.28;;
16354;SDS011;8287;51.644;8.494;2023-07-16T06:39:59;6.03;;;2.30;;
16354;SDS011;8287;51.644;8.494;2023-07-16T06:42:26;4.75;;;2.10;;
16354;SDS011;8287;51.644;8.494;2023-07-16T06:44:52;4.53;;;2.13;;
16354;SDS011;8287;51.644;8.494;2023-07-16T06:47:19;4.97;;;2.20;;
16354;SDS011;8287;51.644;8.494;2023-07-16T06:49:45;4.05;;;1.88;;
16354;SDS011;8287;51.644;8.494;2023-07-16T06:52:18;6.05;;;2.22;;
16354;SDS011;8287;51.644;8.494;2023-07-16T06:54:45;3.95;;;2.42;;
16354;SDS011;8287;51.644;8.494;2023-07-16T06:57:13;4.05;;;2.15;;
16354;SDS011;8287;51.644;8.494;2023-07-16T06:59:39;5.40;;;2.22;;
16354;SDS011;8287;51.644;8.494;2023-07-16T07:02:06;3.03;;;1.80;;
16354;SDS011;8287;51.644;8.494;2023-07-16T07:04:33;3.80;;;1.92;;
16354;SDS011;8287;51.644;8.494;2023-07-16T07:06:59;8.48;;;1.98;;
16354;SDS011;8287;51.644;8.494;2023-07-16T07:09:26;6.72;;;2.33;;
16354;SDS011;8287;51.644;8.494;2023-07-16T07:11:52;3.70;;;2.13;;
16354;SDS011;8287;51.644;8.494;2023-07-16T07:14:20;5.30;;;1.70;;
16354;SDS011;8287;51.644;8.494;2023-07-16T07:16:47;3.70;;;1.90;;
16354;SDS011;8287;51.644;8.494;2023-07-16T07:19:13;9.82;;;2.40;;
16354;SDS011;8287;51.644;8.494;2023-07-16T07:21:40;6.72;;;2.30;;
16354;SDS011;8287;51.644;8.494;2023-07-16T07:24:06;2.25;;;1.73;;
16354;SDS011;8287;51.644;8.494;2023-07-16T07:26:33;3.97;;;2.08;;
16354;SDS011;8287;51.644;8.494;2023-07-16T07:29:00;6.18;;;2.15;;
16354;SDS011;8287;51.644;8.494;2023-07-16T07:31:27;4.07;;;2.05;;
16354;SDS011;8287;51.644;8.494;2023-07-16T07:33:54;4.45;;;2.38;;
16354;SDS011;8287;51.644;8.494;2023-07-16T07:36:22;4.63;;;2.08;;
16354;SDS011;8287;51.644;8.494;2023-07-16T07:38:49;6.28;;;2.55;;
16354;SDS011;8287;51.644;8.494;2023-07-16T07:41:15;2.95;;;2.15;;
16354;SDS011;8287;51.644;8.494;2023-07-16T07:43:42;3.97;;;2.28;;
16354;SDS011;8287;51.644;8.494;2023-07-16T07:46:09;8.32;;;2.20;;
16354;SDS011;8287;51.644;8.494;2023-07-16T07:48:37;3.60;;;2.20;;
16354;SDS011;8287;51.644;8.494;2023-07-16T07:51:04;6.35;;;2.47;;
16354;SDS011;8287;51.644;8.494;2023-07-16T07:53:30;6.40;;;2.38;;
16354;SDS011;8287;51.644;8.494;2023-07-16T07:55:57;3.20;;;2.40;;
16354;SDS011;8287;51.644;8.494;2023-07-16T07:58:24;4.13;;;2.80;;
16354;SDS011;8287;51.644;8.494;2023-07-16T08:00:50;7.38;;;2.72;;
16354;SDS011;8287;51.644;8.494;2023-07-16T08:03:17;6.50;;;2.50;;
16354;SDS011;8287;51.644;8.494;2023-07-16T08:05:45;2.67;;;2.20;;
16354;SDS011;8287;51.644;8.494;2023-07-16T08:08:14;6.95;;;2.53;;
16354;SDS011;8287;51.644;8.494;2023-07-16T08:10:41;4.03;;;2.83;;
16354;SDS011;8287;51.644;8.494;2023-07-16T08:13:08;6.90;;;3.17;;
16354;SDS011;8287;51.644;8.494;2023-07-16T08:15:35;4.88;;;2.45;;
16354;SDS011;8287;51.644;8.494;2023-07-16T08:18:01;2.83;;;2.50;;
16354;SDS011;8287;51.644;8.494;2023-07-16T08:20:28;3.25;;;2.55;;
16354;SDS011;8287;51.644;8.494;2023-07-16T08:22:56;4.38;;;2.90;;
16354;SDS011;8287;51.644;8.494;2023-07-16T08:25:23;6.10;;;2.75;;
16354;SDS011;8287;51.644;8.494;2023-07-16T08:27:50;4.47;;;2.80;;
16354;SDS011;8287;51.644;8.494;2023-07-16T08:30:17;5.97;;;2.88;;
16354;SDS011;8287;51.644;8.494;2023-07-16T08:32:43;3.28;;;2.55;;
16354;SDS011;8287;51.644;8.494;2023-07-16T08:35:10;4.03;;;2.85;;
16354;SDS011;8287;51.644;8.494;2023-07-16T08:37:41;6.18;;;3.08;;
16354;SDS011;8287;51.644;8.494;2023-07-16T08:40:10;2.90;;;2.60;;
16354;SDS011;8287;51.644;8.494;2023-07-16T08:42:38;5.05;;;2.80;;
16354;SDS011;8287;51.644;8.494;2023-07-16T08:45:05;3.80;;;2.95;;
16354;SDS011;8287;51.644;8.494;2023-07-16T08:47:34;4.35;;;3.03;;
16354;SDS011;8287;51.644;8.494;2023-07-16T08:50:02;6.07;;;3.05;;
16354;SDS011;8287;51.644;8.494;2023-07-16T08:52:29;5.72;;;3.20;;
16354;SDS011;8287;51.644;8.494;2023-07-16T08:54:56;4.78;;;2.67;;
16354;SDS011;8287;51.644;8.494;2023-07-16T08:57:24;5.30;;;3.10;;
16354;SDS011;8287;51.644;8.494;2023-07-16T08:59:52;6.88;;;2.85;;
16354;SDS011;8287;51.644;8.494;2023-07-16T09:02:23;4.80;;;2.60;;
16354;SDS011;8287;51.644;8.494;2023-07-16T09:04:49;4.70;;;2.80;;
16354;SDS011;8287;51.644;8.494;2023-07-16T09:07:17;2.88;;;2.60;;
16354;SDS011;8287;51.644;8.494;2023-07-16T09:09:43;4.75;;;2.88;;
16354;SDS011;8287;51.644;8.494;2023-07-16T09:12:24;3.63;;;2.85;;
16354;SDS011;8287;51.644;8.494;2023-07-16T09:14:51;6.35;;;2.22;;
16354;SDS011;8287;51.644;8.494;2023-07-16T09:17:19;2.92;;;2.33;;
16354;SDS011;8287;51.644;8.494;2023-07-16T09:19:47;4.95;;;2.90;;
16354;SDS011;8287;51.644;8.494;2023-07-16T09:22:13;5.85;;;3.38;;
16354;SDS011;8287;51.644;8.494;2023-07-16T09:24:40;2.65;;;2.42;;
16354;SDS011;8287;51.644;8.494;2023-07-16T09:27:06;3.78;;;2.60;;
16354;SDS011;8287;51.644;8.494;2023-07-16T09:29:39;3.08;;;2.80;;
16354;SDS011;8287;51.644;8.494;2023-07-16T09:32:06;5.85;;;2.28;;
16354;SDS011;8287;51.644;8.494;2023-07-16T09:34:32;3.47;;;2.70;;
16354;SDS011;8287;51.644;8.494;2023-07-16T09:37:00;4.43;;;2.70;;
16354;SDS011;8287;51.644;8.494;2023-07-16T09:39:27;3.47;;;2.30;;
16354;SDS011;8287;51.644;8.494;2023-07-16T09:41:54;5.30;;;2.97;;
16354;SDS011;8287;51.644;8.494;2023-07-16T09:44:22;4.20;;;2.25;;
16354;SDS011;8287;51.644;8.494;2023-07-16T09:46:50;7.40;;;2.78;;
16354;SDS011;8287;51.644;8.494;2023-07-16T09:49:17;4.03;;;2.22;;
16354;SDS011;8287;51.644;8.494;2023-07-16T09:51:44;4.43;;;2.65;;
16354;SDS011;8287;51.644;8.494;2023-07-16T09:54:12;3.42;;;2.60;;
16354;SDS011;8287;51.644;8.494;2023-07-16T09:56:40;6.22;;;2.33;;
16354;SDS011;8287;51.644;8.494;2023-07-16T09:59:11;2.72;;;2.20;;
16354;SDS011;8287;51.644;8.494;2023-07-16T10:01:40;5.03;;;2.80;;
16354;SDS011;8287;51.644;8.494;2023-07-16T10:04:15;2.53;;;2.00;;
16354;SDS011;8287;51.644;8.494;2023-07-16T10:06:50;3.45;;;2.70;;
16354;SDS011;8287;51.644;8.494;2023-07-16T10:09:33;3.08;;;2.30;;
16354;SDS011;8287;51.644;8.494;2023-07-16T10:12:07;3.38;;;2.38;;
16354;SDS011;8287;51.644;8.494;2023-07-16T10:14:44;2.75;;;2.30;;
16354;SDS011;8287;51.644;8.494;2023-07-16T10:17:12;3.33;;;2.28;;
16354;SDS011;8287;51.644;8.494;2023-07-16T10:19:48;7.47;;;2.45;;
16354;SDS011;8287;51.644;8.494;2023-07-16T10:22:17;2.50;;;2.20;;
16354;SDS011;8287;51.644;8.494;2023-07-16T10:24:44;3.80;;;2.58;;
16354;SDS011;8287;51.644;8.494;2023-07-16T10:27:25;6.28;;;2.50;;
16354;SDS011;8287;51.644;8.494;2023-07-16T10:29:53;4.05;;;2.38;;
16354;SDS011;8287;51.644;8.494;2023-07-16T10:32:20;3.83;;;2.35;;
16354;SDS011;8287;51.644;8.494;2023-07-16T10:34:46;3.60;;;2.40;;
16354;SDS011;8287;51.644;8.494;2023-07-16T10:37:14;4.85;;;2.50;;
16354;SDS011;8287;51.644;8.494;2023-07-16T10:39:45;2.85;;;2.08;;
16354;SDS011;8287;51.644;8.494;2023-07-16T10:42:13;3.25;;;2.83;;
16354;SDS011;8287;51.644;8.494;2023-07-16T10:44:39;2.47;;;2.20;;
16354;SDS011;8287;51.644;8.494;2023-07-16T10:47:06;3.47;;;2.20;;
16354;SDS011;8287;51.644;8.494;2023-07-16T10:49:33;3.60;;;2.45;;
16354;SDS011;8287;51.644;8.494;2023-07-16T10:52:00;3.63;;;2.50;;
16354;SDS011;8287;51.644;8.494;2023-07-16T10:54:29;3.72;;;2.13;;
16354;SDS011;8287;51.644;8.494;2023-07-16T10:56:56;3.13;;;2.58;;
16354;SDS011;8287;51.644;8.494;2023-07-16T10:59:22;3.90;;;2.85;;
16354;SDS011;8287;51.644;8.494;2023-07-16T11:01:49;4.45;;;2.80;;
16354;SDS011;8287;51.644;8.494;2023-07-16T11:04:16;3.92;;;2.30;;
16354;SDS011;8287;51.644;8.494;2023-07-16T11:06:43;5.05;;;2.40;;
16354;SDS011;8287;51.644;8.494;2023-07-16T11:09:09;3.60;;;2.80;;
16354;SDS011;8287;51.644;8.494;2023-07-16T11:11:37;3.10;;;2.47;;
16354;SDS011;8287;51.644;8.494;2023-07-16T11:14:06;3.70;;;2.10;;
16354;SDS011;8287;51.644;8.494;2023-07-16T11:16:33;3.65;;;3.13;;
16354;SDS011;8287;51.644;8.494;2023-07-16T11:19:01;5.35;;;2.55;;
16354;SDS011;8287;51.644;8.494;2023-07-16T11:21:30;4.30;;;3.28;;
16354;SDS011;8287;51.644;8.494;2023-07-16T11:24:06;4.53;;;2.80;;
16354;SDS011;8287;51.644;8.494;2023-07-16T11:26:34;3.38;;;2.30;;
16354;SDS011;8287;51.644;8.494;2023-07-16T11:29:07;4.68;;;3.00;;
16354;SDS011;8287;51.644;8.494;2023-07-16T11:31:39;3.05;;;2.50;;
16354;SDS011;8287;51.644;8.494;2023-07-16T11:34:06;6.65;;;2.90;;
16354;SDS011;8287;51.644;8.494;2023-07-16T11:36:32;2.90;;;2.60;;
16354;SDS011;8287;51.644;8.494;2023-07-16T11:38:59;3.45;;;2.75;;
16354;SDS011;8287;51.644;8.494;2023-07-16T11:41:29;6.35;;;3.28;;
16354;SDS011;8287;51.644;8.494;2023-07-16T11:43:58;4.35;;;2.80;;
16354;SDS011;8287;51.644;8.494;2023-07-16T11:46:30;3.05;;;2.70;;
16354;SDS011;8287;51.644;8.494;2023-07-16T11:48:58;5.60;;;3.13;;
16354;SDS011;8287;51.644;8.494;2023-07-16T11:51:24;5.00;;;2.80;;
16354;SDS011;8287;51.644;8.494;2023-07-16T11:53:51;4.07;;;2.95;;
16354;SDS011;8287;51.644;8.494;2023-07-16T11:56:17;4.68;;;2.53;;
16354;SDS011;8287;51.644;8.494;2023-07-16T11:58:44;4.07;;;3.17;;
16354;SDS011;8287;51.644;8.494;2023-07-16T12:01:10;3.20;;;2.95;;
16354;SDS011;8287;51.644;8.494;2023-07-16T12:03:39;4.70;;;2.95;;
16354;SDS011;8287;51.644;8.494;2023-07-16T12:06:06;5.82;;;2.88;;
16354;SDS011;8287;51.644;8.494;2023-07-16T12:08:33;4.35;;;2.90;;
16354;SDS011;8287;51.644;8.494;2023-07-16T12:11:00;5.72;;;2.90;;
16354;SDS011;8287;51.644;8.494;2023-07-16T12:13:27;3.28;;;2.42;;
16354;SDS011;8287;51.644;8.494;2023-07-16T12:15:53;4.25;;;2.78;;
16354;SDS011;8287;51.644;8.494;2023-07-16T12:18:20;3.40;;;2.38;;
16354;SDS011;8287;51.644;8.494;2023-07-16T12:20:49;3.08;;;2.80;;
16354;SDS011;8287;51.644;8.494;2023-07-16T12:23:15;5.28;;;2.78;;
16354;SDS011;8287;51.644;8.494;2023-07-16T12:25:42;4.35;;;2.40;;
16354;SDS011;8287;51.644;8.494;2023-07-16T12:28:09;7.82;;;3.30;;
16354;SDS011;8287;51.644;8.494;2023-07-16T12:30:37;3.95;;;2.78;;
16354;SDS011;8287;51.644;8.494;2023-07-16T12:33:03;5.97;;;2.55;;
16354;SDS011;8287;51.644;8.494;2023-07-16T12:35:30;5.18;;;2.55;;
16354;SDS011;8287;51.644;8.494;2023-07-16T12:37:58;3.05;;;2.50;;
16354;SDS011;8287;51.644;8.494;2023-07-16T12:40:27;4.90;;;2.30;;
16354;SDS011;8287;51.644;8.494;2023-07-16T12:42:55;6.05;;;3.05;;
16354;SDS011;8287;51.644;8.494;2023-07-16T12:45:22;3.35;;;2.72;;
16354;SDS011;8287;51.644;8.494;2023-07-16T12:47:49;2.35;;;1.80;;
16354;SDS011;8287;51.644;8.494;2023-07-16T12:50:15;3.67;;;2.22;;
16354;SDS011;8287;51.644;8.494;2023-07-16T12:52:43;3.10;;;2.03;;
16354;SDS011;8287;51.644;8.494;2023-07-16T12:55:11;3.40;;;2.20;;
16354;SDS011;8287;51.644;8.494;2023-07-16T12:57:38;4.18;;;2.20;;
16354;SDS011;8287;51.644;8.494;2023-07-16T13:00:07;4.20;;;2.28;;
16354;SDS011;8287;51.644;8.494;2023-07-16T13:02:35;3.35;;;2.15;;
16354;SDS011;8287;51.644;8.494;2023-07-16T13:05:02;2.53;;;2.33;;
16354;SDS011;8287;51.644;8.494;2023-07-16T13:07:29;8.75;;;2.88;;
16354;SDS011;8287;51.644;8.494;2023-07-16T13:09:56;4.28;;;2.28;;
16354;SDS011;8287;51.644;8.494;2023-07-16T13:12:25;4.47;;;2.40;;
16354;SDS011;8287;51.644;8.494;2023-07-16T13:14:51;2.75;;;2.28;;
16354;SDS011;8287;51.644;8.494;2023-07-16T13:17:18;5.07;;;1.95;;
16354;SDS011;8287;51.644;8.494;2023-07-16T13:19:45;3.47;;;2.80;;
16354;SDS011;8287;51.644;8.494;2023-07-16T13:22:12;2.30;;;2.10;;
16354;SDS011;8287;51.644;8.494;2023-07-16T13:24:39;3.83;;;2.30;;
16354;SDS011;8287;51.644;8.494;2023-07-16T13:27:06;6.22;;;2.25;;
16354;SDS011;8287;51.644;8.494;2023-07-16T13:29:36;4.10;;;2.35;;
16354;SDS011;8287;51.644;8.494;2023-07-16T13:32:03;3.95;;;2.20;;
16354;SDS011;8287;51.644;8.494;2023-07-16T13:34:30;3.90;;;2.20;;
16354;SDS011;8287;51.644;8.494;2023-07-16T13:36:56;2.75;;;2.05;;
16354;SDS011;8287;51.644;8.494;2023-07-16T13:39:23;5.85;;;2.42;;
16354;SDS011;8287;51.644;8.494;2023-07-16T13:41:49;3.75;;;2.63;;
16354;SDS011;8287;51.644;8.494;2023-07-16T13:44:16;2.15;;;2.03;;
16354;SDS011;8287;51.644;8.494;2023-07-16T13:46:44;3.05;;;2.25;;
16354;SDS011;8287;51.644;8.494;2023-07-16T13:49:11;3.28;;;2.20;;
16354;SDS011;8287;51.644;8.494;2023-07-16T13:51:38;4.03;;;2.03;;
16354;SDS011;8287;51.644;8.494;2023-07-16T13:54:05;3.15;;;2.20;;
16354;SDS011;8287;51.644;8.494;2023-07-16T13:56:32;5.22;;;2.20;;
16354;SDS011;8287;51.644;8.494;2023-07-16T13:58:58;3.60;;;2.13;;
16354;SDS011;8287;51.644;8.494;2023-07-16T14:01:25;2.97;;;1.92;;
16354;SDS011;8287;51.644;8.494;2023-07-16T14:03:53;3.60;;;2.30;;
16354;SDS011;8287;51.644;8.494;2023-07-16T14:06:20;3.22;;;1.73;;
16354;SDS011;8287;51.644;8.494;2023-07-16T14:08:46;4.22;;;2.47;;
16354;SDS011;8287;51.644;8.494;2023-07-16T14:11:13;3.83;;;2.13;;
16354;SDS011;8287;51.644;8.494;2023-07-16T14:13:41;4.85;;;2.78;;
16354;SDS011;8287;51.644;8.494;2023-07-16T14:16:07;5.13;;;2.40;;
16354;SDS011;8287;51.644;8.494;2023-07-16T14:18:34;2.92;;;2.00;;
16354;SDS011;8287;51.644;8.494;2023-07-16T14:21:02;3.88;;;2.30;;
16354;SDS011;8287;51.644;8.494;2023-07-16T14:23:29;3.45;;;2.17;;
16354;SDS011;8287;51.644;8.494;2023-07-16T14:25:56;2.40;;;1.88;;
16354;SDS011;8287;51.644;8.494;2023-07-16T14:28:22;2.47;;;2.03;;
16354;SDS011;8287;51.644;8.494;2023-07-16T14:30:49;2.40;;;1.75;;
16354;SDS011;8287;51.644;8.494;2023-07-16T14:33:15;4.45;;;2.22;;
16354;SDS011;8287;51.644;8.494;2023-07-16T14:35:42;4.88;;;2.10;;
16354;SDS011;8287;51.644;8.494;2023-07-16T14:38:10;2.60;;;1.95;;
16354;SDS011;8287;51.644;8.494;2023-07-16T14:40:36;3.53;;;2.15;;
16354;SDS011;8287;51.644;8.494;2023-07-16T14:43:03;3.47;;;2.28;;
16354;SDS011;8287;51.644;8.494;2023-07-16T14:45:30;2.45;;;2.10;;
16354;SDS011;8287;51.644;8.494;2023-07-16T14:47:57;4.22;;;2.10;;
16354;SDS011;8287;51.644;8.494;2023-07-16T14:50:24;2.40;;;2.20;;
16354;SDS011;8287;51.644;8.494;2023-07-16T14:52:51;2.67;;;1.98;;
16354;SDS011;8287;51.644;8.494;2023-07-16T14:55:19;2.95;;;1.92;;
16354;SDS011;8287;51.644;8.494;2023-07-16T14:57:45;2.90;;;2.00;;
16354;SDS011;8287;51.644;8.494;2023-07-16T15:00:12;2.30;;;1.90;;
16354;SDS011;8287;51.644;8.494;2023-07-16T15:02:39;2.47;;;1.90;;